Portada
METAR-TAF:

METAR-TAF

Aeroports :

Bombai, Índia

latitud: 19-05-53N, longitud: 072-50-02E, altitud: 4 m

Observació

L'informe es va fer fa 24 minuts, a les 13:30 UTC
Vent 14 kt del Oest/Sud-Oest amb ràfegues de 24 kt
Temperatura 29°C
Humitat 79%
Pressió 1007 hPa
Visibilitat: 4000 m
Escasses núvols a una alçada de 1800 ft
Núvols disperses a una alçada de 2500 ft
Escasses núvols a una alçada de 2500 ft, Cumulus congestus.
Cel ennuvolat a una alçada de 10000 ft
calitja

METAR: VAJJ 211330Z 25014G24KT 4000 HZ FEW018 SCT025 FEW025TCU BKN100 29/25 Q1007 BECMG 3000 HZ

Hora: 19:24 (13:54 UTC)


TAF: manca

Observacions i pronòstics meteorològics de més de 4000 aeroports (METAR i TAF).

Les estacions disponibles són els punts grocs i vermells al mapa.

Posi el ratolí al punt desitjat per veure el nom de l'estació.

Feu clic per veure les observacions i els pronòstics meteorològics.

Per canviar el mapa: feu clic els botons verds amb una creu de color negre per apropar; al botó verd amb un guió per allunyar la imatge; o en les fletxes verdes per a mapes adjacents.


METAR-TAF: